createdAt,value
2023-02-11T00:01:22.301Z,30.23
2023-02-11T00:03:50.336Z,31.80
2023-02-11T00:06:18.795Z,32.07
2023-02-11T00:08:47.319Z,33.23
2023-02-11T00:11:16.919Z,33.70
2023-02-11T00:13:45.959Z,34.43
2023-02-11T00:16:20.000Z,34.57
2023-02-11T00:18:48.985Z,34.43
2023-02-11T00:21:19.601Z,33.37
2023-02-11T00:23:48.241Z,34.17
2023-02-11T00:26:18.232Z,33.40
2023-02-11T00:28:46.426Z,34.97
2023-02-11T00:31:16.697Z,33.47
2023-02-11T00:33:45.309Z,34.07
2023-02-11T00:36:17.638Z,33.00
2023-02-11T00:38:46.563Z,31.60
2023-02-11T00:41:15.557Z,34.20
2023-02-11T00:43:44.166Z,34.33
2023-02-11T00:46:13.010Z,34.03
2023-02-11T00:48:42.744Z,34.30
2023-02-11T00:51:11.206Z,35.13
2023-02-11T00:53:39.478Z,34.60
2023-02-11T00:56:08.368Z,35.53
2023-02-11T00:58:39.587Z,35.13
2023-02-11T01:01:07.814Z,36.10
2023-02-11T01:03:36.078Z,35.57
2023-02-11T01:06:06.014Z,36.23
2023-02-11T01:08:33.988Z,36.33
2023-02-11T01:11:04.591Z,39.17
2023-02-11T01:13:35.220Z,38.00
2023-02-11T01:16:03.271Z,37.10
2023-02-11T01:18:31.336Z,37.50
2023-02-11T01:20:59.653Z,36.73
2023-02-11T01:23:29.037Z,36.57
2023-02-11T01:25:57.697Z,35.80
2023-02-11T01:28:27.843Z,36.20
2023-02-11T01:30:56.448Z,37.23
2023-02-11T01:33:24.952Z,38.33
2023-02-11T01:35:53.468Z,37.57
2023-02-11T01:38:24.599Z,37.57
2023-02-11T01:40:56.182Z,39.20
2023-02-11T01:43:25.335Z,39.53
2023-02-11T01:46:14.526Z,38.77
2023-02-11T01:48:45.809Z,39.43
2023-02-11T01:51:19.418Z,39.53
2023-02-11T01:54:10.789Z,39.07
2023-02-11T01:57:01.911Z,44.07
2023-02-11T01:59:34.593Z,45.73
2023-02-11T02:02:11.119Z,47.27
2023-02-11T02:04:45.425Z,47.63
2023-02-11T02:07:18.137Z,44.13
2023-02-11T02:09:50.502Z,42.50
2023-02-11T02:12:19.894Z,42.50
2023-02-11T02:14:47.885Z,39.77
2023-02-11T02:17:30.102Z,39.80
2023-02-11T02:20:25.759Z,40.40
2023-02-11T02:23:36.484Z,38.47
2023-02-11T02:26:20.890Z,37.07
2023-02-11T02:29:19.600Z,37.33
2023-02-11T02:32:03.461Z,36.43
2023-02-11T02:34:43.116Z,36.53
2023-02-11T02:37:19.208Z,35.43
2023-02-11T02:39:50.272Z,35.67
2023-02-11T02:42:20.734Z,34.80
2023-02-11T02:44:50.719Z,37.00
2023-02-11T02:47:18.932Z,35.67
2023-02-11T02:49:48.238Z,34.93
2023-02-11T02:52:28.806Z,37.47
2023-02-11T02:55:24.005Z,37.93
2023-02-11T02:58:11.284Z,38.57
2023-02-11T03:00:49.526Z,35.87
2023-02-11T03:03:24.690Z,37.00
2023-02-11T03:06:01.569Z,36.67
2023-02-11T03:08:33.520Z,35.27
2023-02-11T03:11:04.393Z,34.33
2023-02-11T03:13:34.987Z,34.73
2023-02-11T03:16:09.263Z,34.27
2023-02-11T03:18:40.818Z,34.93
2023-02-11T03:21:12.045Z,32.13
2023-02-11T03:23:43.055Z,34.53
2023-02-11T03:26:17.561Z,33.50
2023-02-11T03:28:52.366Z,33.67
2023-02-11T03:31:27.133Z,33.67
2023-02-11T03:34:02.279Z,35.03
2023-02-11T03:36:36.755Z,33.33
2023-02-11T03:39:06.811Z,34.67
2023-02-11T03:41:36.572Z,34.60
2023-02-11T03:44:07.176Z,34.70
2023-02-11T03:46:42.246Z,33.67
2023-02-11T03:49:13.075Z,33.40
2023-02-11T03:51:42.731Z,32.90
2023-02-11T03:54:17.263Z,33.50
2023-02-11T03:56:50.794Z,32.77
2023-02-11T03:59:18.992Z,32.57
2023-02-11T04:01:47.122Z,32.37
2023-02-11T04:04:15.380Z,31.93
2023-02-11T04:06:44.744Z,33.03
2023-02-11T04:09:13.122Z,30.87
2023-02-11T04:11:41.095Z,31.13
2023-02-11T04:14:09.051Z,31.03
2023-02-11T04:16:37.129Z,30.97
2023-02-11T04:19:05.305Z,30.20
2023-02-11T04:21:33.349Z,32.23
2023-02-11T04:24:05.135Z,29.67
2023-02-11T04:26:33.109Z,30.03
2023-02-11T04:29:01.100Z,31.33
2023-02-11T04:31:29.155Z,31.73
2023-02-11T04:33:58.087Z,33.20
2023-02-11T04:36:26.064Z,30.93
2023-02-11T04:38:54.011Z,30.37
2023-02-11T04:41:23.399Z,32.03
2023-02-11T04:43:51.405Z,32.50
2023-02-11T04:46:19.732Z,31.80
2023-02-11T04:48:47.734Z,33.93
2023-02-11T04:51:15.771Z,32.67
2023-02-11T04:53:43.958Z,32.20
2023-02-11T04:56:11.923Z,32.63
2023-02-11T04:58:41.488Z,31.27
2023-02-11T05:01:10.447Z,32.00
2023-02-11T05:03:38.771Z,32.17
2023-02-11T05:06:07.703Z,32.50
2023-02-11T05:08:35.667Z,32.47
2023-02-11T05:11:03.666Z,31.00
2023-02-11T05:13:32.199Z,31.07
2023-02-11T05:16:01.551Z,31.30
2023-02-11T05:18:29.575Z,29.60
2023-02-11T05:20:57.667Z,31.07
2023-02-11T05:23:25.640Z,29.13
2023-02-11T05:25:53.708Z,28.17
2023-02-11T05:28:21.698Z,28.07
2023-02-11T05:30:49.905Z,28.07
2023-02-11T05:33:19.306Z,28.77
2023-02-11T05:35:47.329Z,27.07
2023-02-11T05:38:15.391Z,27.10
2023-02-11T05:40:43.469Z,26.13
2023-02-11T05:43:11.462Z,26.77
2023-02-11T05:45:39.453Z,28.03
2023-02-11T05:48:07.463Z,27.07
2023-02-11T05:50:36.795Z,26.43
2023-02-11T05:53:05.584Z,26.00
2023-02-11T05:55:33.802Z,28.30
2023-02-11T05:58:02.848Z,27.00
2023-02-11T06:00:30.832Z,27.37
2023-02-11T06:02:58.945Z,26.47
2023-02-11T06:05:27.450Z,25.93
2023-02-11T06:07:56.782Z,25.13
2023-02-11T06:10:24.731Z,26.60
2023-02-11T06:12:52.781Z,26.07
2023-02-11T06:15:23.502Z,27.63
2023-02-11T06:17:51.550Z,29.40
2023-02-11T06:20:19.623Z,25.93
2023-02-11T06:22:47.733Z,23.67
2023-02-11T06:25:17.078Z,22.60
2023-02-11T06:27:45.117Z,21.53
2023-02-11T06:30:14.014Z,23.17
2023-02-11T06:32:44.929Z,23.30
2023-02-11T06:35:14.064Z,25.43
2023-02-11T06:37:42.831Z,25.20
2023-02-11T06:40:11.196Z,24.80
2023-02-11T06:42:40.888Z,27.40
2023-02-11T06:45:13.272Z,27.93
2023-02-11T06:47:42.027Z,26.50
2023-02-11T06:50:13.507Z,25.67
2023-02-11T06:52:41.846Z,23.93
2023-02-11T06:55:10.094Z,25.43
2023-02-11T06:57:38.075Z,23.17
2023-02-11T07:00:08.975Z,22.07
2023-02-11T07:02:37.460Z,21.30
2023-02-11T07:05:07.038Z,20.03
2023-02-11T07:07:35.441Z,17.27
2023-02-11T07:10:04.155Z,17.77
2023-02-11T07:12:33.625Z,16.97
2023-02-11T07:15:01.767Z,17.17
2023-02-11T07:17:31.141Z,18.10
2023-02-11T07:19:59.128Z,17.87
2023-02-11T07:22:27.110Z,17.87
2023-02-11T07:24:55.131Z,17.30
2023-02-11T07:27:23.119Z,17.47
2023-02-11T07:29:51.086Z,18.63
2023-02-11T07:32:19.096Z,18.07
2023-02-11T07:34:49.495Z,17.77
2023-02-11T07:37:17.599Z,18.50
2023-02-11T07:39:45.629Z,17.40
2023-02-11T07:42:15.761Z,17.80
2023-02-11T07:44:43.847Z,17.10
2023-02-11T07:47:13.939Z,17.40
2023-02-11T07:49:43.428Z,17.87
2023-02-11T07:52:12.821Z,17.73
2023-02-11T07:54:40.875Z,16.67
2023-02-11T07:57:08.890Z,16.83
2023-02-11T07:59:36.864Z,18.47
2023-02-11T08:02:05.017Z,15.80
2023-02-11T08:04:33.075Z,16.77
2023-02-11T08:07:01.028Z,16.50
2023-02-11T08:09:32.771Z,16.13
2023-02-11T08:12:02.454Z,17.43
2023-02-11T08:14:32.677Z,16.73
2023-02-11T08:17:00.692Z,16.50
2023-02-11T08:19:28.673Z,16.60
2023-02-11T08:21:57.414Z,16.60
2023-02-11T08:24:25.478Z,15.37
2023-02-11T08:26:54.877Z,16.83
2023-02-11T08:29:22.853Z,16.90
2023-02-11T08:31:50.836Z,17.43
2023-02-11T08:34:19.539Z,17.47
2023-02-11T08:36:49.168Z,17.13
2023-02-11T08:39:20.297Z,17.00
2023-02-11T08:41:49.785Z,15.53
2023-02-11T08:44:19.412Z,16.50
2023-02-11T08:46:47.762Z,16.43
2023-02-11T08:49:18.949Z,17.00
2023-02-11T08:51:47.427Z,16.07
2023-02-11T08:54:17.875Z,16.47
2023-02-11T08:56:46.826Z,16.90
2023-02-11T08:59:20.197Z,17.07
2023-02-11T09:01:48.323Z,16.10
2023-02-11T09:04:16.846Z,16.93
2023-02-11T09:06:44.878Z,16.10
2023-02-11T09:09:14.779Z,17.40
2023-02-11T09:11:44.496Z,16.87
2023-02-11T09:14:18.363Z,16.90
2023-02-11T09:16:48.634Z,17.53
2023-02-11T09:19:17.152Z,16.90
2023-02-11T09:21:45.224Z,17.27
2023-02-11T09:24:13.381Z,16.40
2023-02-11T09:26:43.399Z,18.00
2023-02-11T09:29:11.410Z,17.03
2023-02-11T09:31:39.726Z,17.53
2023-02-11T09:34:09.537Z,17.90
2023-02-11T09:36:41.513Z,17.13
2023-02-11T09:39:17.054Z,18.27
2023-02-11T09:42:08.979Z,17.40
2023-02-11T09:44:38.985Z,17.93
2023-02-11T09:47:14.551Z,18.07
2023-02-11T09:49:48.013Z,17.73
2023-02-11T09:52:26.120Z,19.03
2023-02-11T09:54:57.499Z,18.40
2023-02-11T09:57:32.613Z,17.73
2023-02-11T10:00:01.566Z,18.87
2023-02-11T10:02:39.849Z,18.63
2023-02-11T10:05:31.203Z,18.97
2023-02-11T10:08:09.904Z,18.17
2023-02-11T10:10:48.736Z,18.17
2023-02-11T10:13:31.941Z,19.03
2023-02-11T10:16:10.519Z,19.10
2023-02-11T10:19:00.283Z,18.77
2023-02-11T10:21:40.530Z,19.17
2023-02-11T10:24:15.515Z,18.20
2023-02-11T10:26:45.316Z,19.43
2023-02-11T10:29:22.351Z,18.53
2023-02-11T10:31:51.787Z,20.00
2023-02-11T10:34:19.786Z,20.37
2023-02-11T10:36:49.149Z,20.00
2023-02-11T10:39:21.772Z,21.00
2023-02-11T10:41:54.664Z,19.97
2023-02-11T10:44:27.191Z,20.10
2023-02-11T10:46:56.664Z,20.97
2023-02-11T10:49:37.360Z,20.40
2023-02-11T10:52:20.708Z,19.63
2023-02-11T10:55:04.062Z,19.93
2023-02-11T10:57:35.996Z,20.03
2023-02-11T11:00:09.751Z,20.27
2023-02-11T11:02:44.019Z,20.57
2023-02-11T11:05:19.219Z,20.83
2023-02-11T11:07:57.167Z,20.33
2023-02-11T11:10:31.654Z,19.73
2023-02-11T11:12:59.661Z,20.37
2023-02-11T11:15:29.572Z,22.10
2023-02-11T11:18:22.537Z,21.17
2023-02-11T11:20:59.782Z,22.00
2023-02-11T11:23:30.104Z,22.07
2023-02-11T11:26:05.396Z,21.57
2023-02-11T11:28:39.647Z,20.70
2023-02-11T11:31:14.847Z,20.80
2023-02-11T11:33:45.920Z,20.57
2023-02-11T11:36:16.754Z,20.80
2023-02-11T11:38:51.279Z,20.80
2023-02-11T11:41:26.025Z,20.37
2023-02-11T11:44:02.906Z,20.07
2023-02-11T11:46:33.993Z,20.27
2023-02-11T11:49:17.580Z,21.00
2023-02-11T11:51:52.302Z,20.27
2023-02-11T11:54:22.873Z,19.90
2023-02-11T11:56:56.803Z,21.73
2023-02-11T11:59:24.787Z,21.13
2023-02-11T12:02:21.294Z,20.13
2023-02-11T12:05:02.691Z,20.87
2023-02-11T12:07:41.965Z,20.63
2023-02-11T12:10:37.092Z,20.93
2023-02-11T12:13:18.322Z,21.07
2023-02-11T12:15:58.354Z,21.27
2023-02-11T12:18:44.921Z,23.37
2023-02-11T12:21:26.047Z,23.30
2023-02-11T12:24:07.229Z,21.60
2023-02-11T12:26:45.477Z,22.63
2023-02-11T12:29:25.475Z,22.23
2023-02-11T12:32:10.557Z,21.73
2023-02-11T12:34:52.603Z,23.13
2023-02-11T12:37:32.426Z,21.07
2023-02-11T12:40:11.073Z,22.17
2023-02-11T12:43:09.835Z,23.30
2023-02-11T12:45:55.467Z,21.23
2023-02-11T12:48:40.802Z,21.27
2023-02-11T12:51:16.162Z,22.30
2023-02-11T12:54:08.048Z,22.13
2023-02-11T12:56:41.479Z,22.27
2023-02-11T12:59:21.734Z,22.37
2023-02-11T13:01:53.123Z,23.90
2023-02-11T13:04:27.923Z,23.97
2023-02-11T13:07:02.200Z,23.60
2023-02-11T13:09:36.872Z,23.37
2023-02-11T13:12:28.656Z,22.47
2023-02-11T13:15:01.760Z,23.73
2023-02-11T13:17:37.867Z,24.07
2023-02-11T13:20:18.392Z,23.27
2023-02-11T13:22:57.129Z,23.40
2023-02-11T13:25:34.216Z,22.10
2023-02-11T13:28:16.440Z,23.87
2023-02-11T13:30:51.972Z,24.40
2023-02-11T13:33:33.753Z,22.90
2023-02-11T13:36:22.948Z,24.20
2023-02-11T13:38:58.792Z,23.93
2023-02-11T13:41:39.771Z,24.70
2023-02-11T13:44:28.450Z,23.53
2023-02-11T13:47:04.598Z,25.13
2023-02-11T13:49:41.494Z,25.40
2023-02-11T13:52:22.944Z,24.60
2023-02-11T13:54:53.566Z,23.93
2023-02-11T13:57:39.378Z,23.50
2023-02-11T14:00:47.322Z,23.23
2023-02-11T14:03:54.851Z,22.43
2023-02-11T14:06:45.339Z,22.83
2023-02-11T14:09:37.385Z,23.00
2023-02-11T14:12:32.776Z,23.43
2023-02-11T14:15:19.802Z,23.87
2023-02-11T14:17:47.994Z,26.20
2023-02-11T14:20:37.582Z,27.83
2023-02-11T14:23:07.223Z,25.00
2023-02-11T14:25:35.595Z,25.63
2023-02-11T14:28:12.525Z,35.43
2023-02-11T14:30:58.083Z,31.80
2023-02-11T14:33:59.918Z,28.20
2023-02-11T14:36:51.838Z,30.60
2023-02-11T14:39:28.851Z,31.07
2023-02-11T14:41:59.034Z,39.83
2023-02-11T14:44:31.032Z,31.77
2023-02-11T14:46:59.687Z,33.27
2023-02-11T14:49:30.606Z,33.47
2023-02-11T14:52:05.079Z,31.17
2023-02-11T14:54:34.851Z,32.33
2023-02-11T14:57:12.879Z,30.57
2023-02-11T14:59:41.405Z,31.27
2023-02-11T15:02:22.942Z,31.50
2023-02-11T15:04:51.149Z,30.53
2023-02-11T15:07:20.558Z,29.43
2023-02-11T15:09:52.425Z,34.77
2023-02-11T15:12:23.694Z,31.07
2023-02-11T15:14:55.104Z,32.83
2023-02-11T15:17:26.192Z,29.00
2023-02-11T15:19:57.829Z,28.87
2023-02-11T15:22:30.184Z,29.20
2023-02-11T15:25:03.831Z,29.57
2023-02-11T15:27:40.723Z,28.57
2023-02-11T15:30:30.464Z,29.17
2023-02-11T15:33:00.322Z,29.97
2023-02-11T15:35:31.109Z,30.80
2023-02-11T15:38:01.529Z,30.17
2023-02-11T15:40:32.447Z,28.97
2023-02-11T15:43:05.512Z,31.00
2023-02-11T15:45:35.073Z,30.57
2023-02-11T15:48:13.795Z,30.00
2023-02-11T15:50:43.871Z,31.53
2023-02-11T15:53:26.378Z,33.57
2023-02-11T15:56:00.180Z,33.00
2023-02-11T15:58:28.467Z,32.73
2023-02-11T16:00:59.892Z,32.73
2023-02-11T16:03:32.521Z,33.00
2023-02-11T16:06:19.651Z,33.63
2023-02-11T16:09:07.018Z,33.87
2023-02-11T16:11:54.978Z,36.87
2023-02-11T16:14:29.391Z,34.67
2023-02-11T16:16:59.746Z,33.77
2023-02-11T16:19:28.656Z,33.47
2023-02-11T16:21:59.231Z,33.23
2023-02-11T16:24:30.621Z,32.27
2023-02-11T16:27:01.391Z,35.37
2023-02-11T16:29:30.982Z,36.37
2023-02-11T16:32:09.299Z,36.23
2023-02-11T16:34:38.051Z,35.67
2023-02-11T16:37:08.903Z,36.50
2023-02-11T16:39:38.291Z,36.93
2023-02-11T16:42:07.724Z,37.43
2023-02-11T16:44:36.647Z,35.90
2023-02-11T16:47:07.723Z,38.50
2023-02-11T16:49:38.201Z,37.43
2023-02-11T16:52:09.033Z,36.73
2023-02-11T16:54:38.391Z,38.33
2023-02-11T16:57:16.509Z,39.67
2023-02-11T16:59:46.043Z,39.73
2023-02-11T17:02:19.210Z,39.67
2023-02-11T17:04:47.422Z,40.53
2023-02-11T17:07:15.443Z,40.70
2023-02-11T17:09:45.031Z,39.50
2023-02-11T17:12:13.247Z,39.37
2023-02-11T17:14:41.237Z,42.33
2023-02-11T17:17:10.207Z,39.73
2023-02-11T17:19:38.649Z,39.50
2023-02-11T17:22:07.002Z,39.20
2023-02-11T17:24:35.185Z,39.37
2023-02-11T17:27:04.782Z,38.83
2023-02-11T17:29:32.956Z,38.93
2023-02-11T17:32:00.961Z,39.83
2023-02-11T17:34:29.458Z,40.63
2023-02-11T17:36:57.915Z,41.93
2023-02-11T17:39:26.166Z,42.13
2023-02-11T17:41:54.214Z,40.93
2023-02-11T17:44:23.615Z,42.47
2023-02-11T17:46:51.585Z,42.37
2023-02-11T17:49:20.090Z,44.53
2023-02-11T17:51:48.172Z,43.30
2023-02-11T17:54:22.471Z,41.57
2023-02-11T17:56:50.850Z,40.83
2023-02-11T17:59:19.041Z,42.37
2023-02-11T18:01:48.871Z,43.90
2023-02-11T18:04:19.518Z,42.43
2023-02-11T18:06:47.622Z,42.73
2023-02-11T18:09:15.702Z,40.07
2023-02-11T18:11:43.729Z,40.30
2023-02-11T18:14:12.440Z,40.97
2023-02-11T18:16:43.561Z,38.13
2023-02-11T18:19:14.089Z,41.57
2023-02-11T18:21:42.423Z,39.33
2023-02-11T18:24:10.747Z,38.70
2023-02-11T18:26:38.737Z,40.77
2023-02-11T18:29:07.284Z,40.40
2023-02-11T18:31:39.372Z,41.87
2023-02-11T18:34:10.612Z,42.07
2023-02-11T18:36:42.312Z,42.73
2023-02-11T18:39:10.312Z,40.63
2023-02-11T18:41:40.037Z,42.17
2023-02-11T18:44:08.077Z,41.97
2023-02-11T18:46:38.987Z,42.97
2023-02-11T18:49:07.395Z,44.00
2023-02-11T18:51:35.415Z,46.57
2023-02-11T18:54:04.857Z,43.90
2023-02-11T18:56:33.245Z,44.07
2023-02-11T18:59:02.452Z,44.90
2023-02-11T19:01:31.581Z,44.23
2023-02-11T19:04:02.812Z,45.50
2023-02-11T19:06:34.268Z,44.97
2023-02-11T19:09:06.082Z,46.03
2023-02-11T19:11:54.166Z,45.93
2023-02-11T19:14:24.405Z,45.83
2023-02-11T19:16:57.849Z,46.30
2023-02-11T19:19:28.950Z,46.23
2023-02-11T19:21:58.268Z,44.90
2023-02-11T19:24:28.936Z,45.87
2023-02-11T19:26:58.988Z,46.90
2023-02-11T19:29:27.146Z,47.83
2023-02-11T19:31:55.448Z,47.90
2023-02-11T19:34:23.761Z,49.00
2023-02-11T19:36:52.747Z,47.47
2023-02-11T19:39:21.381Z,50.27
2023-02-11T19:41:51.561Z,50.77
2023-02-11T19:44:19.686Z,50.40
2023-02-11T19:46:48.761Z,48.77
2023-02-11T19:49:22.792Z,49.73
2023-02-11T19:51:51.072Z,47.97
2023-02-11T19:54:20.188Z,49.30
2023-02-11T19:56:49.067Z,47.93
2023-02-11T19:59:19.468Z,45.90
2023-02-11T20:01:49.031Z,49.57
2023-02-11T20:04:20.061Z,50.03
2023-02-11T20:06:49.422Z,48.40
2023-02-11T20:09:21.721Z,49.53
2023-02-11T20:11:50.305Z,50.53
2023-02-11T20:14:26.162Z,49.33
2023-02-11T20:16:55.515Z,49.87
2023-02-11T20:19:23.986Z,51.37
2023-02-11T20:21:55.415Z,49.47
2023-02-11T20:24:25.662Z,49.40
2023-02-11T20:26:55.890Z,49.03
2023-02-11T20:29:26.438Z,49.87
2023-02-11T20:31:56.483Z,49.20
2023-02-11T20:34:25.272Z,50.27
2023-02-11T20:36:55.051Z,51.00
2023-02-11T20:39:24.338Z,50.40
2023-02-11T20:41:53.655Z,53.40
2023-02-11T20:44:22.831Z,51.50
2023-02-11T20:46:54.009Z,52.27
2023-02-11T20:49:24.762Z,51.40
2023-02-11T20:51:54.490Z,53.10
2023-02-11T20:54:23.665Z,53.40
2023-02-11T20:56:53.555Z,52.33
2023-02-11T20:59:22.525Z,52.77
2023-02-11T21:01:55.354Z,52.53
2023-02-11T21:04:26.316Z,50.33
2023-02-11T21:06:59.640Z,49.47
2023-02-11T21:09:33.370Z,52.63
2023-02-11T21:12:02.230Z,52.53
2023-02-11T21:14:30.475Z,52.57
2023-02-11T21:16:59.941Z,51.97
2023-02-11T21:19:28.180Z,50.83
2023-02-11T21:22:00.649Z,50.87
2023-02-11T21:24:30.733Z,49.97
2023-02-11T21:26:58.899Z,50.80
2023-02-11T21:29:26.863Z,48.67
2023-02-11T21:31:57.954Z,50.90
2023-02-11T21:34:27.319Z,50.37
2023-02-11T21:36:55.288Z,50.07
2023-02-11T21:39:23.284Z,48.33
2023-02-11T21:41:51.585Z,49.07
2023-02-11T21:44:19.921Z,48.70
2023-02-11T21:46:48.141Z,49.63
2023-02-11T21:49:16.132Z,47.43
2023-02-11T21:51:45.900Z,49.00
2023-02-11T21:54:13.887Z,50.13
2023-02-11T21:56:43.213Z,50.40
2023-02-11T21:59:14.121Z,50.87
2023-02-11T22:01:42.305Z,52.07
2023-02-11T22:04:11.002Z,51.03
2023-02-11T22:06:39.283Z,51.60
2023-02-11T22:09:10.755Z,52.03
2023-02-11T22:11:38.999Z,52.73
2023-02-11T22:14:07.133Z,52.50
2023-02-11T22:16:35.324Z,52.70
2023-02-11T22:19:03.400Z,51.70
2023-02-11T22:21:32.033Z,53.50
2023-02-11T22:24:00.066Z,52.43
2023-02-11T22:26:29.678Z,54.00
2023-02-11T22:28:57.773Z,54.00
2023-02-11T22:31:28.803Z,53.97
2023-02-11T22:34:00.515Z,51.27
2023-02-11T22:36:30.195Z,53.27
2023-02-11T22:39:01.593Z,52.50
2023-02-11T22:41:30.959Z,52.47
2023-02-11T22:43:59.388Z,51.90
2023-02-11T22:46:27.873Z,50.93
2023-02-11T22:48:57.817Z,52.57
2023-02-11T22:51:29.146Z,49.43
2023-02-11T22:53:59.344Z,51.03
2023-02-11T22:56:28.251Z,49.00
2023-02-11T22:59:01.752Z,47.73
2023-02-11T23:01:30.981Z,46.47
2023-02-11T23:04:01.004Z,47.40
2023-02-11T23:06:29.000Z,47.50
2023-02-11T23:08:58.700Z,47.27
2023-02-11T23:11:28.652Z,46.50
2023-02-11T23:13:57.632Z,48.03
2023-02-11T23:16:29.351Z,45.00
2023-02-11T23:18:59.728Z,45.23
2023-02-11T23:21:29.815Z,45.30
2023-02-11T23:23:59.208Z,44.80
2023-02-11T23:26:27.468Z,44.53
2023-02-11T23:28:56.228Z,45.00
2023-02-11T23:31:28.011Z,44.53
2023-02-11T23:33:56.166Z,44.57
2023-02-11T23:36:24.704Z,45.30
2023-02-11T23:38:52.735Z,46.87
2023-02-11T23:41:21.804Z,47.47
2023-02-11T23:43:56.600Z,47.00
2023-02-11T23:46:27.701Z,47.90
2023-02-11T23:48:56.132Z,47.77
2023-02-11T23:51:24.585Z,46.77
2023-02-11T23:53:54.721Z,46.50
2023-02-11T23:56:25.268Z,48.30
2023-02-11T23:58:55.562Z,47.13
